Data for 04/16/2006

Time Sea-Level Adjusted Pressure Absolute Pressure Temperature Relative Humidity Dew Point   
(mb) (inHg) (mb) (inHg) (C) (F) (%) (C) (F)
00:05 1006 29.71 835 24.66 12.2 54 35 -2.7 27.1
00:10 1006 29.71 835 24.66 12.4 54.3 36 -2.3 27.8
00:15 1006 29.71 835 24.66 12.3 54.2 36 -2.4 27.7
00:20 1006 29.71 835 24.66 12 53.7 38 -1.7 28.9
00:25 1006 29.71 835 24.66 12 53.6 37 -2.1 28.2
00:30 1006 29.71 835 24.66 12.2 53.9 37 -1.9 28.7
00:35 1006 29.71 835 24.66 12.1 53.7 39 -1.6 29.2
00:40 1006 29.71 835 24.66 12 53.5 39 -1.7 29
00:45 1005 29.68 835 24.66 12.2 53.9 38 -1.7 28.9
00:50 1005 29.68 835 24.66 12.2 54 38 -1.6 29.2
00:55 1005 29.68 835 24.66 12 53.7 39 -1.4 29.4
01:00 1005 29.68 835 24.66 11.8 53.2 40 -1.4 29.5
01:05 1005 29.68 835 24.66 11.6 52.9 40 -1.5 29.2
01:10 1006 29.71 835 24.66 11.6 52.8 41 -1.3 29.6
01:15 1006 29.71 835 24.66 11.8 53.3 40 -1.4 29.4
01:20 1005 29.68 835 24.66 11.9 53.5 40 -1.2 29.8
01:25 1005 29.68 835 24.66 11.9 53.4 41 -1 30.2
01:30 1005 29.68 835 24.66 11.8 53.2 41 -1 30.2
01:35 1006 29.71 835 24.66 11.9 53.4 41 -0.9 30.4
01:40 1005 29.68 835 24.66 12 53.6 41 -0.8 30.6
01:45 1006 29.71 835 24.66 11.8 53.3 41 -0.8 30.6
01:50 1005 29.68 835 24.66 11.9 53.5 41 -0.9 30.3
01:55 1005 29.68 835 24.66 11.8 53.3 41 -0.9 30.4
02:00 1006 29.71 835 24.66 11.8 53.2 41 -1.1 30
02:05 1006 29.71 835 24.66 11.8 53.2 41 -0.9 30.5
02:10 1006 29.71 835 24.66 11.6 52.8 42 -1 30.2
02:15 1006 29.71 835 24.66 11.5 52.6 42 -0.9 30.5
02:20 1006 29.71 835 24.66 11.2 52.2 43 -0.9 30.4
02:25 1006 29.71 835 24.66 11.3 52.3 42 -1 30.2
02:30 1006 29.71 835 24.66 11.5 52.7 41 -1.2 29.8
02:35 1005 29.68 835 24.66 11.6 52.9 41 -1.1 30
02:40 1005 29.68 835 24.66 11.7 53 40 -1.2 29.8
02:45 1006 29.71 835 24.66 11.5 52.8 42 -0.9 30.5
02:50 1006 29.71 835 24.66 11.6 52.8 41 -1.2 29.9
02:55 1006 29.71 835 24.66 11.6 52.9 41 -1 30.2
03:00 1006 29.71 835 24.66 11.5 52.7 42 -1 30.2
03:05 1006 29.71 835 24.66 11.6 52.8 42 -1 30.3
03:10 1006 29.71 835 24.66 11.6 53 41 -1.1 30
03:15 1006 29.71 835 24.66 11.5 52.7 42 -0.9 30.3
03:20 1006 29.71 835 24.66 11.3 52.3 42 -1.1 30
03:25 1006 29.71 835 24.66 11.3 52.4 42 -0.9 30.4
03:30 1006 29.71 835 24.66 11.1 51.9 43 -0.9 30.3
03:35 1006 29.71 835 24.66 11.1 52.1 43 -1 30.2
03:40 1006 29.71 835 24.66 11.2 52.1 42 -1.1 30
03:45 1006 29.71 835 24.66 11.3 52.3 42 -1.2 29.8
03:50 1006 29.71 835 24.66 11.3 52.3 41 -1.4 29.5
03:55 1006 29.71 835 24.66 11.4 52.4 41 -1.3 29.7
04:00 1006 29.71 835 24.66 11.2 52.2 42 -1.3 29.7
04:05 1006 29.71 835 24.66 11.3 52.3 40 -1.6 29.1
04:10 1006 29.71 835 24.66 11.3 52.4 41 -1.5 29.2
04:15 1006 29.71 835 24.66 11.5 52.6 41 -1.4 29.5
04:20 1006 29.71 835 24.66 11.3 52.3 41 -1.4 29.5
04:25 1006 29.71 835 24.66 11.3 52.3 41 -1.4 29.5
04:30 1006 29.71 835 24.66 11.2 52.1 41 -1.5 29.3
04:35 1006 29.71 835 24.66 11.1 51.9 42 -1.3 29.6
04:40 1006 29.71 836 24.69 11 51.7 42 -1.3 29.6
04:45 1006 29.71 835 24.66 10.9 51.7 42 -1.5 29.3
04:50 1006 29.71 835 24.66 10.9 51.7 42 -1.4 29.5
04:55 1006 29.71 836 24.69 10.9 51.5 43 -1.2 29.8
05:00 1006 29.71 835 24.66 10.5 51 45 -0.9 30.4
05:05 1006 29.71 836 24.69 10 50 47 -0.9 30.4
05:10 1006 29.71 836 24.69 10.1 50.2 45 -1.3 29.7
05:15 1006 29.71 836 24.69 10.4 50.7 44 -1.3 29.7
05:20 1006 29.71 836 24.69 10.2 50.4 45 -1.2 29.8
05:25 1006 29.71 836 24.69 10.5 50.8 43 -1.7 29
05:30 1006 29.71 836 24.69 10.5 50.8 43 -1.5 29.2
05:35 1006 29.71 836 24.69 10.4 50.6 42 -1.8 28.7
05:40 1006 29.71 836 24.69 10.3 50.6 42 -2.1 28.2
05:45 1007 29.74 836 24.69 10.5 50.9 42 -1.8 28.7
05:50 1007 29.74 836 24.69 10.3 50.6 42 -2.1 28.3
05:55 1007 29.74 836 24.69 10.5 50.8 41 -2.1 28.2
06:00 1007 29.74 836 24.69 10.5 50.9 41 -2.2 28
06:05 1007 29.74 836 24.69 10.5 50.9 41 -2.1 28.3
06:10 1007 29.74 836 24.69 10.4 50.7 43 -1.7 29
06:15 1007 29.74 836 24.69 10 50 45 -1.5 29.4
06:20 1007 29.74 836 24.69 9.9 49.7 44 -1.7 29
06:25 1007 29.74 836 24.69 10.1 50.1 44 -1.5 29.4
06:30 1007 29.74 836 24.69 9.8 49.6 46 -1.3 29.6
06:35 1007 29.74 836 24.69 9.3 48.8 47 -1.4 29.5
06:40 1007 29.74 836 24.69 9.5 49 45 -1.7 28.9
06:45 1007 29.74 836 24.69 9.8 49.7 45 -1.5 29.2
06:50 1007 29.74 836 24.69 9.9 49.9 45 -1.6 29.2
06:55 1007 29.74 836 24.69 10 50 44 -1.7 29
07:00 1007 29.74 836 24.69 10 50 44 -1.8 28.8
07:05 1007 29.74 837 24.72 10.1 50.2 44 -1.4 29.5
07:10 1007 29.74 837 24.72 10 49.9 46 -1 30.1
07:15 1007 29.74 837 24.72 9.2 48.6 48 -1.2 29.8
07:20 1008 29.77 837 24.72 9 48.1 44 -2.8 27
07:25 1008 29.77 837 24.72 9.5 49 43 -2.3 27.8
07:30 1008 29.77 837 24.72 9.6 49.2 46 -1.3 29.6
07:35 1008 29.77 837 24.72 9.2 48.6 42 -2.8 26.9
07:40 1008 29.77 837 24.72 9.5 49 43 -2.4 27.6
07:45 1008 29.77 837 24.72 9.6 49.3 42 -2.6 27.3
07:50 1008 29.77 837 24.72 9.5 49.2 47 -1.2 29.9
07:55 1008 29.77 837 24.72 9.3 48.8 47 -1.3 29.6
08:00 1008 29.77 837 24.72 9.1 48.5 49 -0.9 30.3
08:05 1008 29.77 837 24.72 8.9 47.9 50 -1 30.1
08:10 1008 29.77 838 24.75 8.9 48 52 -0.5 31
08:15 1008 29.77 838 24.75 8.6 47.5 55 0.1 32.1
08:20 1009 29.8 838 24.75 8.3 47 57 0.4 32.7
08:25 1009 29.8 838 24.75 8.1 46.5 58 0.4 32.7
08:30 1009 29.8 838 24.75 8 46.4 58 0.4 32.7
08:35 1009 29.8 838 24.75 7.9 46.3 60 0.6 33.1
08:40 1009 29.8 838 24.75 7.9 46.2 60 0.6 33
08:45 1009 29.8 838 24.75 8 46.4 59 0.6 33.1
08:50 1009 29.8 838 24.75 8.1 46.6 60 0.7 33.3
08:55 1009 29.8 838 24.75 8.2 46.8 59 0.7 33.3
09:00 1009 29.8 838 24.75 8.3 47 59 0.9 33.6
09:05 1009 29.8 838 24.75 7.9 46.3 61 1 33.8
09:10 1009 29.8 838 24.75 7.8 46 61 0.7 33.3
09:15 1009 29.8 838 24.75 8.3 46.9 59 0.8 33.5
09:20 1009 29.8 838 24.75 8.2 46.7 59 0.7 33.2
09:25 1009 29.8 838 24.75 8.5 47.4 57 0.6 33.1
09:30 1009 29.8 838 24.75 8.4 47.1 58 0.7 33.3
09:35 1009 29.8 838 24.75 8.4 47.1 57 0.5 32.8
09:40 1009 29.8 838 24.75 9.1 48.3 55 0.6 33.1
09:45 1009 29.8 838 24.75 9.6 49.2 54 0.8 33.4
09:50 1009 29.8 838 24.75 9.6 49.2 54 0.9 33.6
09:55 1009 29.8 838 24.75 9.6 49.2 54 0.9 33.6
10:00 1009 29.8 838 24.75 9.6 49.2 54 0.9 33.5
10:05 1009 29.8 838 24.75 9.7 49.5 52 0.4 32.6
10:10 1009 29.8 838 24.75 9.8 49.6 50 -0 32
10:15 1009 29.8 838 24.75 9.8 49.7 50 -0.2 31.7
10:20 1009 29.8 838 24.75 10 50 50 0.2 32.3
10:25 1009 29.8 838 24.75 10 49.9 52 0.7 33.2
10:30 1009 29.8 838 24.75 9.8 49.6 53 0.8 33.4
10:35 1009 29.8 838 24.75 9.8 49.6 53 0.6 33
10:40 1009 29.8 838 24.75 10 50.1 51 0.5 32.8
10:45 1009 29.8 838 24.75 10.4 50.6 50 0.3 32.6
10:50 1009 29.8 838 24.75 10.9 51.6 47 0.1 32.2
10:55 1009 29.8 838 24.75 11.1 51.9 47 0.2 32.4
11:00 1009 29.8 838 24.75 11.3 52.3 47 0.4 32.8
11:05 1009 29.8 838 24.75 11.4 52.4 47 0.5 32.8
11:10 1009 29.8 838 24.75 10.9 51.6 48 0.4 32.7
11:15 1009 29.8 838 24.75 10.9 51.6 48 0.3 32.6
11:20 1009 29.8 838 24.75 10.9 51.7 49 0.6 33.1
11:25 1009 29.8 838 24.75 10.7 51.3 48 0.3 32.6
11:30 1009 29.8 838 24.75 10.3 50.6 50 0.5 32.9
11:35 1009 29.8 838 24.75 10.3 50.6 50 0.3 32.6
11:40 1009 29.8 838 24.75 10.7 51.2 48 0.3 32.6
11:45 1009 29.8 838 24.75 10.9 51.6 48 0.3 32.5
11:50 1009 29.8 838 24.75 10.9 51.6 47 0.1 32.2
11:55 1009 29.8 838 24.75 10.9 51.6 49 0.6 33.1
12:00 1008 29.77 838 24.75 11.2 52.2 46 0.1 32.2
12:05 1008 29.77 838 24.75 11.5 52.6 46 0.2 32.3
12:10 1008 29.77 838 24.75 11.9 53.5 45 0.4 32.7
12:15 1008 29.77 838 24.75 12 53.5 45 0.5 32.9
12:20 1008 29.77 837 24.72 11.9 53.5 46 0.6 33.1
12:25 1008 29.77 837 24.72 11.9 53.3 45 0.5 32.9
12:30 1008 29.77 837 24.72 12.5 54.5 43 0.4 32.7
12:35 1008 29.77 837 24.72 12.4 54.3 43 0.2 32.3
12:40 1008 29.77 837 24.72 12.3 54.1 42 -0.1 31.9
12:45 1008 29.77 837 24.72 12.1 53.7 45 0.7 33.2
12:50 1008 29.77 837 24.72 11.6 52.9 44 -0.1 31.9
12:55 1008 29.77 837 24.72 12.1 53.7 46 0.9 33.5
13:00 1008 29.77 837 24.72 12.6 54.6 42 0 32.1
13:05 1008 29.77 837 24.72 13.5 56.3 39 -0 31.9
13:10 1008 29.77 837 24.72 13.1 55.6 41 0.1 32.2
13:15 1008 29.77 837 24.72 13.2 55.8 38 -0.6 31
13:20 1007 29.74 837 24.72 13.7 56.6 38 -0.5 31.1
13:25 1007 29.74 837 24.72 13.4 56.2 40 0.1 32.1
13:30 1007 29.74 837 24.72 12.9 55.2 40 -0.4 31.4
13:35 1007 29.74 837 24.72 13.1 55.6 40 -0.2 31.6
13:40 1007 29.74 837 24.72 13.7 56.7 36 -1.1 30
13:45 1007 29.74 836 24.69 13.9 57 37 -0.5 31
13:50 1007 29.74 836 24.69 13.3 56 39 -0.2 31.7
13:55 1007 29.74 836 24.69 13.2 55.8 38 -0.8 30.6
14:00 1007 29.74 836 24.69 13.7 56.7 35 -1.4 29.5
14:05 1007 29.74 836 24.69 14.7 58.5 33 -1.2 29.8
14:10 1007 29.74 836 24.69 15.1 59.2 33 -0.9 30.3
14:15 1007 29.74 836 24.69 15 59 35 -0.4 31.3
14:20 1007 29.74 836 24.69 15.6 60.1 30 -1.8 28.8
14:25 1007 29.74 836 24.69 15.1 59.2 32 -1.3 29.6
14:30 1007 29.74 836 24.69 14.2 57.6 31 -2.8 27
14:35 1006 29.71 836 24.69 14 57.2 30 -3.1 26.4
14:40 1006 29.71 835 24.66 14.2 57.6 34 -1.5 29.3
14:45 1006 29.71 835 24.66 14.2 57.6 34 -1.2 29.9
14:50 1006 29.71 835 24.66 13.6 56.4 35 -1.4 29.5
14:55 1006 29.71 835 24.66 13.3 56 36 -1.3 29.6
15:00 1006 29.71 835 24.66 13.1 55.6 36 -1.7 29
15:05 1006 29.71 835 24.66 13 55.3 36 -1.8 28.7
15:10 1006 29.71 835 24.66 12.9 55.2 35 -2 28.4
15:15 1006 29.71 835 24.66 13.2 55.7 34 -2.2 28.1
15:20 1006 29.71 835 24.66 13.1 55.5 35 -2 28.4
15:25 1006 29.71 835 24.66 12.9 55.1 35 -2.2 28.1
15:30 1006 29.71 835 24.66 12.4 54.4 36 -2.2 28.1
15:35 1006 29.71 835 24.66 12.3 54.1 38 -1.7 29
15:40 1006 29.71 835 24.66 12.1 53.7 42 -0.5 31.1
15:45 1006 29.71 835 24.66 11.4 52.5 46 0.4 32.6
15:50 1006 29.71 835 24.66 10.9 51.5 53 1.8 35.2
15:55 1006 29.71 836 24.69 10.1 50.1 58 2.3 36.1
16:00 1006 29.71 836 24.69 9.6 49.2 60 2.3 36.2
16:05 1006 29.71 835 24.66 9 48.3 65 2.8 37
16:10 1006 29.71 836 24.69 8.8 47.8 68 3.2 37.7
16:15 1006 29.71 836 24.69 8.8 47.9 68 3.3 38
16:20 1006 29.71 836 24.69 8.8 47.8 68 3.3 38
16:25 1006 29.71 836 24.69 8.6 47.6 69 3.4 38.1
16:30 1007 29.74 836 24.69 8.5 47.2 73 4 39.2
16:35 1007 29.74 836 24.69 8.3 47 74 4 39.3
16:40 1006 29.71 836 24.69 8.3 47 73 3.8 38.8
16:45 1006 29.71 836 24.69 8.5 47.2 72 3.8 38.8
16:50 1006 29.71 836 24.69 8.3 47 72 3.6 38.6
16:55 1006 29.71 836 24.69 8.4 47.1 73 3.8 38.9
17:00 1007 29.74 836 24.69 8.3 47 73 3.9 39
17:05 1007 29.74 836 24.69 8.3 46.9 74 4 39.2
17:10 1007 29.74 836 24.69 8.3 46.9 77 4.5 40.1
17:15 1007 29.74 836 24.69 8.2 46.7 77 4.5 40.1
17:20 1007 29.74 836 24.69 7.9 46.2 77 4.1 39.4
17:25 1007 29.74 836 24.69 7.4 45.3 80 4.2 39.5
17:30 1007 29.74 836 24.69 6.9 44.5 83 4.2 39.6
17:35 1007 29.74 836 24.69 6.6 43.9 83 4 39.2
17:40 1007 29.74 836 24.69 6.5 43.7 83 3.8 38.9
17:45 1007 29.74 836 24.69 6.4 43.6 85 4 39.2
17:50 1007 29.74 836 24.69 6.4 43.6 84 3.9 39.1
17:55 1007 29.74 836 24.69 6.2 43.2 83 3.5 38.3
18:00 1007 29.74 836 24.69 6.1 42.9 85 3.8 38.8
18:05 1007 29.74 836 24.69 5.9 42.6 86 3.7 38.6
18:10 1007 29.74 836 24.69 5.6 42 82 2.7 36.8
18:15 1007 29.74 836 24.69 5.6 42.1 80 2.4 36.4
18:20 1007 29.74 836 24.69 5.6 42 84 3 37.5
18:25 1007 29.74 836 24.69 5.4 41.6 85 3 37.5
18:30 1007 29.74 836 24.69 5.4 41.8 86 3.2 37.8
18:35 1007 29.74 836 24.69 5.4 41.7 85 3.1 37.5
18:40 1007 29.74 836 24.69 5.3 41.6 81 2.4 36.3
18:45 1007 29.74 836 24.69 5.2 41.3 84 2.7 36.9
18:50 1007 29.74 836 24.69 5 40.9 84 2.4 36.3
18:55 1007 29.74 836 24.69 4.8 40.6 85 2.4 36.3
19:00 1007 29.74 836 24.69 4.6 40.4 86 2.5 36.6
19:05 1007 29.74 836 24.69 4.6 40.3 85 2.4 36.2
19:10 1007 29.74 836 24.69 4.8 40.6 85 2.5 36.6
19:15 1007 29.74 836 24.69 4.9 40.7 84 2.3 36.2
19:20 1007 29.74 836 24.69 4.6 40.3 87 2.6 36.7
19:25 1007 29.74 836 24.69 4.4 39.9 89 2.7 36.9
19:30 1007 29.74 836 24.69 4.2 39.6 89 2.6 36.7
19:35 1007 29.74 836 24.69 4.1 39.4 90 2.6 36.6
19:40 1007 29.74 836 24.69 4.3 39.7 87 2.3 36.2
19:45 1007 29.74 836 24.69 4.6 40.3 86 2.5 36.5
19:50 1007 29.74 836 24.69 4.8 40.6 87 2.7 36.9
19:55 1007 29.74 836 24.69 4.8 40.7 89 3.1 37.6
20:00 1007 29.74 836 24.69 4.7 40.5 87 2.7 36.9
20:05 1007 29.74 836 24.69 4.8 40.6 85 2.5 36.5
20:10 1006 29.71 836 24.69 4.5 40.1 87 2.5 36.6
20:15 1006 29.71 835 24.66 4.2 39.5 88 2.3 36.2
20:20 1006 29.71 835 24.66 3.9 39.1 90 2.4 36.4
20:25 1006 29.71 835 24.66 3.8 38.9 91 2.4 36.4
20:30 1006 29.71 835 24.66 3.8 38.8 90 2.4 36.2
20:35 1006 29.71 835 24.66 3.8 38.9 91 2.4 36.4
20:40 1005 29.68 835 24.66 3.8 38.8 91 2.5 36.4
20:45 1005 29.68 834 24.63 3.6 38.5 92 2.4 36.3
20:50 1005 29.68 834 24.63 3.5 38.3 91 2.2 36
20:55 1005 29.68 834 24.63 3.4 38.2 92 2.3 36.2
21:00 1005 29.68 834 24.63 3.3 38 93 2.2 36
21:05 1005 29.68 835 24.66 3.2 37.8 93 2.2 35.9
21:10 1006 29.71 835 24.66 3.3 37.9 92 2 35.6
21:15 1006 29.71 835 24.66 3.4 38.1 90 1.9 35.4
21:20 1007 29.74 836 24.69 3.6 38.5 90 2.1 35.7
21:25 1007 29.74 837 24.72 3.8 38.9 89 2.1 35.8
21:30 1007 29.74 836 24.69 3.8 38.8 89 2.1 35.8
21:35 1007 29.74 836 24.69 3.6 38.5 90 2.2 35.9
21:40 1006 29.71 835 24.66 3.4 38.2 91 2.1 35.8
21:45 1007 29.74 836 24.69 3.7 38.6 89 2 35.5
21:50 1007 29.74 836 24.69 3.8 38.9 90 2.3 36.1
21:55 1007 29.74 836 24.69 3.9 39.1 89 2.2 36
22:00 1007 29.74 836 24.69 4 39.1 89 2.3 36.2
22:05 1007 29.74 837 24.72 4.2 39.6 89 2.6 36.8
22:10 1008 29.77 837 24.72 4.4 39.9 89 2.7 36.9
22:15 1008 29.77 837 24.72 4.5 40.1 89 2.9 37.1
22:20 1008 29.77 837 24.72 4.5 40.1 89 2.8 37
22:25 1008 29.77 837 24.72 4.4 40 89 2.8 37.1
22:30 1008 29.77 837 24.72 4.3 39.7 88 2.5 36.5
22:35 1008 29.77 837 24.72 4 39.1 88 2.2 36
22:40 1008 29.77 837 24.72 3.6 38.6 90 2.2 36
22:45 1008 29.77 837 24.72 3.5 38.3 91 2.2 35.9
22:50 1008 29.77 838 24.75 3.3 37.9 91 2 35.6
22:55 1008 29.77 838 24.75 3.2 37.7 91 1.9 35.4
23:00 1008 29.77 838 24.75 3 37.4 92 1.9 35.4
23:05 1008 29.77 838 24.75 2.8 37.1 93 1.8 35.2
23:10 1008 29.77 838 24.75 2.7 36.8 94 1.7 35.1
23:15 1008 29.77 838 24.75 2.8 37 94 1.9 35.4
23:20 1008 29.77 838 24.75 2.7 36.9 93 1.8 35.2
23:25 1008 29.77 838 24.75 2.7 36.9 94 1.8 35.2
23:30 1008 29.77 838 24.75 2.6 36.8 94 1.7 35.1
23:35 1008 29.77 838 24.75 2.6 36.7 94 1.8 35.2
23:40 1008 29.77 838 24.75 2.6 36.7 94 1.8 35.2
23:45 1008 29.77 838 24.75 2.6 36.7 94 1.8 35.2
23:50 1009 29.8 838 24.75 2.6 36.6 94 1.8 35.2
23:55 1008 29.77 838 24.75 2.7 36.9 93 1.7 35.1
24:00 1008 29.77 838 24.75 2.6 36.8 93 1.6 34.9